Time;durP1;ratioP1;P1;durP2;ratioP2;P2;SDS_P1;SDS_P2;PMS_P1;PMS_P2;Temp;Humidity;BMP_temperature;BMP_pressure;BME280_temperature;BME280_humidity;BME280_pressure;Samples;Min_cycle;Max_cycle;Signal;HPM_P1;HPM_P2
2022/07/03 00:01:06;;;;;;;1.83;1.73;;;15.10;99.90;;;;;;5008318;28;20123;-85
2022/07/03 00:03:32;;;;;;;1.95;1.85;;;15.10;99.90;;;;;;5037297;28;20041;-84
2022/07/03 00:05:58;;;;;;;2.22;1.80;;;15.10;99.90;;;;;;5036439;28;20045;-84
2022/07/03 00:08:24;;;;;;;1.80;1.70;;;15.00;99.90;;;;;;5036113;28;20037;-84
2022/07/03 00:10:49;;;;;;;2.45;1.58;;;15.00;99.90;;;;;;5002939;28;20045;-86
2022/07/03 00:13:16;;;;;;;2.38;1.65;;;14.90;99.90;;;;;;5032803;28;20072;-86
2022/07/03 00:15:43;;;;;;;3.17;2.05;;;14.90;99.90;;;;;;5025594;28;20021;-84
2022/07/03 00:18:10;;;;;;;1.67;1.58;;;14.80;99.90;;;;;;5049343;28;20491;-88
2022/07/03 00:20:42;;;;;;;2.17;1.98;;;14.80;99.90;;;;;;5055259;28;20078;-84
2022/07/03 00:23:13;;;;;;;1.80;1.70;;;14.70;99.90;;;;;;5038374;28;20380;-85
2022/07/03 00:25:40;;;;;;;1.73;1.63;;;14.70;99.90;;;;;;5063547;28;20036;-86
2022/07/03 00:28:08;;;;;;;2.03;1.60;;;14.70;99.90;;;;;;5055908;28;20028;-89
2022/07/03 00:30:34;;;;;;;1.92;1.63;;;14.70;99.90;;;;;;5023022;28;20399;-84
2022/07/03 00:33:05;;;;;;;1.98;1.77;;;14.60;99.90;;;;;;5040701;28;20059;-84
2022/07/03 00:35:34;;;;;;;2.10;1.92;;;14.70;99.90;;;;;;5031593;28;20025;-85
2022/07/03 00:38:01;;;;;;;1.73;1.63;;;14.70;99.90;;;;;;5036106;28;20040;-84
2022/07/03 00:40:27;;;;;;;2.00;1.90;;;14.80;99.90;;;;;;5037766;28;20033;-86
2022/07/03 00:42:53;;;;;;;2.42;1.70;;;14.90;99.90;;;;;;5039923;28;20085;-84
2022/07/03 00:45:22;;;;;;;1.98;1.80;;;14.90;99.90;;;;;;5037630;28;20520;-84
2022/07/03 00:47:48;;;;;;;1.80;1.70;;;14.90;99.90;;;;;;5055949;28;20508;-86
2022/07/03 00:50:14;;;;;;;1.67;1.58;;;14.90;99.90;;;;;;5038491;28;20117;-85
2022/07/03 00:52:47;;;;;;;2.00;1.80;;;14.80;99.90;;;;;;5040160;28;20135;-84
2022/07/03 00:55:17;;;;;;;2.08;1.80;;;14.80;99.90;;;;;;5041557;28;20501;-86
2022/07/03 00:57:47;;;;;;;1.83;1.67;;;14.70;99.90;;;;;;5066782;28;20090;-85
2022/07/03 01:00:17;;;;;;;2.45;1.98;;;14.70;99.90;;;;;;5061547;28;20117;-85
2022/07/03 01:02:51;;;;;;;2.58;1.92;;;14.70;99.90;;;;;;5035431;28;20041;-84
2022/07/03 01:05:31;;;;;;;2.28;1.80;;;14.60;99.90;;;;;;5054355;28;20033;-87
2022/07/03 01:08:20;;;;;;;2.00;1.90;;;14.60;99.90;;;;;;5047672;28;20036;-84
2022/07/03 01:10:49;;;;;;;1.80;1.65;;;14.60;99.90;;;;;;5017876;28;20041;-88
2022/07/03 01:13:37;;;;;;;2.63;2.13;;;14.50;99.90;;;;;;5056359;28;20028;-86
2022/07/03 01:16:26;;;;;;;2.20;2.00;;;14.50;99.90;;;;;;5046120;28;20033;-86
2022/07/03 01:19:09;;;;;;;2.30;2.00;;;14.50;99.90;;;;;;5025186;28;20041;-86
2022/07/03 01:21:44;;;;;;;3.25;2.00;;;14.50;99.90;;;;;;5047966;28;20039;-85
2022/07/03 01:24:13;;;;;;;1.83;1.73;;;14.40;99.90;;;;;;5060673;28;20040;-84
2022/07/03 01:26:41;;;;;;;2.00;1.80;;;14.40;99.90;;;;;;5057840;28;20108;-85
2022/07/03 01:29:12;;;;;;;1.50;1.40;;;14.40;99.90;;;;;;5051084;28;20498;-87
2022/07/03 01:31:39;;;;;;;2.03;1.92;;;14.30;99.90;;;;;;5059223;28;20078;-85
2022/07/03 01:34:12;;;;;;;1.90;1.80;;;14.30;99.90;;;;;;5051678;28;20210;-85
2022/07/03 01:36:40;;;;;;;2.15;1.80;;;14.30;99.90;;;;;;5026585;28;20029;-85
2022/07/03 01:39:09;;;;;;;2.63;2.42;;;14.30;99.90;;;;;;5041651;28;20029;-85
2022/07/03 01:41:37;;;;;;;2.22;2.03;;;14.20;99.90;;;;;;5042709;28;20032;-87
2022/07/03 01:44:04;;;;;;;2.83;1.55;;;14.20;99.90;;;;;;5041861;28;20036;-89
2022/07/03 01:46:32;;;;;;;2.20;2.00;;;14.20;99.90;;;;;;5055329;28;20108;-84
2022/07/03 01:49:00;;;;;;;1.90;1.80;;;14.20;99.90;;;;;;5060820;28;20028;-85
2022/07/03 01:51:27;;;;;;;2.35;1.90;;;14.20;99.90;;;;;;5066271;28;20041;-85
2022/07/03 01:53:53;;;;;;;1.75;1.55;;;14.10;99.90;;;;;;5062807;28;20510;-84
2022/07/03 01:56:23;;;;;;;2.00;1.80;;;14.10;99.90;;;;;;5040317;28;20017;-86
2022/07/03 01:58:49;;;;;;;3.60;2.00;;;14.10;99.90;;;;;;5022715;28;20136;-84
2022/07/03 02:01:21;;;;;;;2.88;1.88;;;14.00;99.90;;;;;;5056664;28;20033;-85
2022/07/03 02:03:59;;;;;;;2.10;1.90;;;14.00;99.90;;;;;;5042171;28;20032;-85
2022/07/03 02:06:56;;;;;;;2.78;1.83;;;14.00;99.90;;;;;;5039516;28;20114;-84
2022/07/03 02:09:29;;;;;;;2.10;1.90;;;14.00;99.90;;;;;;5034518;28;20098;-86
2022/07/03 02:11:55;;;;;;;2.47;2.00;;;14.00;99.90;;;;;;5039019;28;20037;-86
2022/07/03 02:14:30;;;;;;;2.10;1.90;;;14.00;99.90;;;;;;5040280;28;20105;-84
2022/07/03 02:17:02;;;;;;;1.88;1.77;;;13.90;99.90;;;;;;5057137;28;20061;-86
2022/07/03 02:19:55;;;;;;;2.30;2.10;;;13.90;99.90;;;;;;5023049;28;20089;-84
2022/07/03 02:22:27;;;;;;;2.80;1.92;;;13.90;99.90;;;;;;5065038;28;20071;-86
2022/07/03 02:25:05;;;;;;;2.50;1.80;;;13.90;99.90;;;;;;5024344;28;20025;-85
2022/07/03 02:27:57;;;;;;;1.70;1.60;;;13.90;99.90;;;;;;5062708;28;20036;-83
2022/07/03 02:30:24;;;;;;;2.20;2.00;;;13.90;99.90;;;;;;5058932;28;20024;-87
2022/07/03 02:32:53;;;;;;;1.92;1.75;;;13.80;99.90;;;;;;5042629;28;20104;-83
2022/07/03 02:35:22;;;;;;;2.13;2.00;;;13.80;99.90;;;;;;5054684;28;20025;-86
2022/07/03 02:37:55;;;;;;;2.20;1.98;;;13.80;99.90;;;;;;5058297;28;20024;-85
2022/07/03 02:40:30;;;;;;;3.50;2.20;;;13.80;99.90;;;;;;5064592;28;20050;-85
2022/07/03 02:43:23;;;;;;;2.47;2.20;;;13.80;99.90;;;;;;5056240;28;20408;-84
2022/07/03 02:45:55;;;;;;;4.47;2.65;;;13.70;99.90;;;;;;5041488;28;20104;-85
2022/07/03 02:48:35;;;;;;;2.40;2.20;;;13.70;99.90;;;;;;5041755;28;20046;-86
2022/07/03 02:51:09;;;;;;;2.28;2.08;;;13.70;99.90;;;;;;5039655;28;20040;-84
2022/07/03 02:53:53;;;;;;;2.58;2.38;;;13.70;99.90;;;;;;5073276;28;20043;-85
2022/07/03 02:56:36;;;;;;;2.53;2.33;;;13.60;99.90;;;;;;5053407;28;20033;-85
2022/07/03 02:59:11;;;;;;;2.38;2.17;;;13.60;99.90;;;;;;5038096;28;20054;-86
2022/07/03 03:02:03;;;;;;;3.47;2.70;;;13.60;99.90;;;;;;5045936;28;20078;-85
2022/07/03 03:04:31;;;;;;;3.00;2.65;;;13.50;99.90;;;;;;5058368;28;20071;-85
2022/07/03 03:07:10;;;;;;;2.70;2.50;;;13.50;99.90;;;;;;5042070;28;20079;-84
2022/07/03 03:09:45;;;;;;;3.20;2.90;;;13.50;99.90;;;;;;5040594;28;20051;-85
2022/07/03 03:12:12;;;;;;;2.60;2.40;;;13.50;99.90;;;;;;5056524;28;20067;-85
2022/07/03 03:14:40;;;;;;;3.65;2.67;;;13.40;99.90;;;;;;5058287;28;20033;-88
2022/07/03 03:17:07;;;;;;;3.53;2.60;;;13.40;99.90;;;;;;5035714;28;20025;-87
2022/07/03 03:19:41;;;;;;;2.60;2.40;;;13.40;99.90;;;;;;5052521;28;20402;-85
2022/07/03 03:22:16;;;;;;;2.65;2.25;;;13.40;99.90;;;;;;5042293;28;20070;-85
2022/07/03 03:24:42;;;;;;;2.33;2.13;;;13.40;99.90;;;;;;5052696;28;20029;-84
2022/07/03 03:27:08;;;;;;;2.25;2.05;;;13.40;99.90;;;;;;5041686;28;20036;-86
2022/07/03 03:29:34;;;;;;;3.55;2.42;;;13.40;99.90;;;;;;5063017;28;20024;-84
2022/07/03 03:32:00;;;;;;;2.55;2.35;;;13.40;99.90;;;;;;5065800;28;20066;-87
2022/07/03 03:34:26;;;;;;;3.75;2.55;;;13.40;99.90;;;;;;5042078;28;20039;-85
2022/07/03 03:36:52;;;;;;;2.45;2.28;;;13.40;99.90;;;;;;5040973;28;20040;-86
2022/07/03 03:39:18;;;;;;;3.10;2.78;;;13.30;99.90;;;;;;5058145;28;20054;-85
2022/07/03 03:41:44;;;;;;;2.70;2.50;;;13.40;99.90;;;;;;5041743;28;20043;-83
2022/07/03 03:44:10;;;;;;;3.13;2.83;;;13.30;99.90;;;;;;5025334;28;20036;-84
2022/07/03 03:46:35;;;;;;;2.97;2.67;;;13.30;99.90;;;;;;5009195;28;20039;-86
2022/07/03 03:49:01;;;;;;;3.15;2.85;;;13.40;99.90;;;;;;5021553;28;20029;-85
2022/07/03 03:51:27;;;;;;;2.63;2.38;;;13.40;99.90;;;;;;5040815;28;20032;-86
2022/07/03 03:53:53;;;;;;;3.85;2.80;;;13.40;99.90;;;;;;5023778;28;20517;-86
2022/07/03 03:56:19;;;;;;;8.13;2.88;;;13.40;99.90;;;;;;5040340;28;20082;-84
2022/07/03 03:58:44;;;;;;;3.47;2.78;;;13.40;99.90;;;;;;5036110;28;20040;-85
2022/07/03 04:01:11;;;;;;;2.70;2.50;;;13.40;99.90;;;;;;5044567;28;20033;-85
2022/07/03 04:03:40;;;;;;;2.88;2.50;;;13.40;99.90;;;;;;5037600;28;20059;-86
2022/07/03 04:06:06;;;;;;;5.20;2.78;;;13.40;99.90;;;;;;5041324;28;20573;-86
2022/07/03 04:08:32;;;;;;;3.63;2.85;;;13.50;99.90;;;;;;5040357;28;20056;-86
2022/07/03 04:10:58;;;;;;;2.92;2.60;;;13.50;99.90;;;;;;5036634;28;20479;-86
2022/07/03 04:13:24;;;;;;;2.97;2.65;;;13.50;99.90;;;;;;5002682;28;20044;-86
2022/07/03 04:15:52;;;;;;;2.53;2.33;;;13.50;99.90;;;;;;5021559;28;20490;-86
2022/07/03 04:18:18;;;;;;;2.95;2.65;;;13.60;99.90;;;;;;5031910;28;20029;-86
2022/07/03 04:20:44;;;;;;;4.70;3.53;;;13.60;99.90;;;;;;5044712;28;20032;-87
2022/07/03 04:23:10;;;;;;;5.60;3.03;;;13.70;99.90;;;;;;5033601;28;20034;-87
2022/07/03 04:25:36;;;;;;;3.95;3.13;;;13.80;99.90;;;;;;5035338;28;20027;-86
2022/07/03 04:28:02;;;;;;;2.35;2.15;;;14.00;99.90;;;;;;5068895;28;20032;-86
2022/07/03 04:30:28;;;;;;;2.60;2.40;;;14.10;99.90;;;;;;5036001;28;20516;-86
2022/07/03 04:32:54;;;;;;;2.33;2.13;;;14.10;99.90;;;;;;5069187;28;20085;-86
2022/07/03 04:35:20;;;;;;;2.45;2.25;;;14.20;99.90;;;;;;5038160;28;20574;-86
2022/07/03 04:37:46;;;;;;;2.83;2.53;;;14.20;99.90;;;;;;5035485;28;20029;-84
2022/07/03 04:40:12;;;;;;;2.85;2.65;;;14.30;99.90;;;;;;5053524;28;20032;-86
2022/07/03 04:42:38;;;;;;;3.13;2.80;;;14.30;99.90;;;;;;5040316;28;20058;-85
2022/07/03 04:45:05;;;;;;;3.28;2.97;;;14.40;99.90;;;;;;5038309;28;20467;-85
2022/07/03 04:47:30;;;;;;;3.38;3.08;;;14.60;99.90;;;;;;5054197;28;20033;-85
2022/07/03 04:49:56;;;;;;;3.08;2.78;;;14.70;99.90;;;;;;5019346;28;20035;-85
2022/07/03 04:52:22;;;;;;;3.25;2.95;;;14.80;99.90;;;;;;5035988;28;20468;-85
2022/07/03 04:54:48;;;;;;;2.90;2.67;;;15.00;99.90;;;;;;5038239;28;20029;-86
2022/07/03 04:57:14;;;;;;;3.90;2.80;;;15.10;99.90;;;;;;5036001;28;20483;-86
2022/07/03 04:59:39;;;;;;;4.43;2.95;;;15.30;99.90;;;;;;5035652;28;20498;-86
2022/07/03 05:02:05;;;;;;;3.50;3.20;;;15.40;99.90;;;;;;5035232;28;20036;-86
2022/07/03 05:04:31;;;;;;;3.88;2.75;;;15.60;99.90;;;;;;5069442;28;20876;-86
2022/07/03 05:06:57;;;;;;;3.97;3.30;;;15.80;99.90;;;;;;5047872;28;20051;-87
2022/07/03 05:09:23;;;;;;;4.22;3.20;;;15.90;99.90;;;;;;5041135;28;20170;-86
2022/07/03 05:11:48;;;;;;;3.08;2.78;;;16.10;99.90;;;;;;5038936;28;20040;-87
2022/07/03 05:14:14;;;;;;;3.50;3.08;;;16.30;99.90;;;;;;5036756;28;20020;-84
2022/07/03 05:16:40;;;;;;;2.92;2.72;;;16.40;99.90;;;;;;5033802;28;20040;-85
2022/07/03 05:19:06;;;;;;;3.13;2.85;;;16.60;99.90;;;;;;5020594;28;20040;-87
2022/07/03 05:21:32;;;;;;;4.55;2.55;;;16.70;99.90;;;;;;5036349;28;20056;-89
2022/07/03 05:23:58;;;;;;;4.80;3.10;;;16.80;99.90;;;;;;5037730;28;20037;-84
2022/07/03 05:26:24;;;;;;;3.72;3.20;;;16.90;99.90;;;;;;5040158;28;20037;-84
2022/07/03 05:28:49;;;;;;;3.05;2.72;;;17.10;99.90;;;;;;5046427;28;20530;-87
2022/07/03 05:31:15;;;;;;;2.72;2.53;;;17.30;99.90;;;;;;5067576;28;20070;-86
2022/07/03 05:33:41;;;;;;;2.60;2.40;;;17.40;99.90;;;;;;5036082;28;20082;-87
2022/07/03 05:36:07;;;;;;;4.88;2.80;;;17.70;99.90;;;;;;5052860;28;20116;-88
2022/07/03 05:41:18;;;;;;;3.70;2.40;;;18.30;99.90;;;;;;5069367;28;20094;-87
2022/07/03 05:43:44;;;;;;;3.70;2.20;;;18.70;99.90;;;;;;5035433;28;20051;-87
2022/07/03 05:46:10;;;;;;;2.55;2.35;;;19.10;99.90;;;;;;5065223;28;20040;-88
2022/07/03 05:48:36;;;;;;;2.67;2.47;;;19.30;99.90;;;;;;5032707;28;20041;-86
2022/07/03 05:51:03;;;;;;;2.92;2.33;;;19.70;99.90;;;;;;5065442;28;20033;-85
2022/07/03 05:53:29;;;;;;;2.55;2.35;;;20.00;99.90;;;;;;5035675;28;20036;-85
2022/07/03 05:55:55;;;;;;;2.50;2.17;;;20.30;99.90;;;;;;5035552;28;20127;-86
2022/07/03 05:58:21;;;;;;;2.67;2.35;;;20.60;99.90;;;;;;5031878;28;20122;-85
2022/07/03 06:00:46;;;;;;;2.50;2.30;;;20.90;99.90;;;;;;5054195;28;20040;-85
2022/07/03 06:03:12;;;;;;;2.63;2.42;;;21.00;98.40;;;;;;5019453;28;20036;-87
2022/07/03 06:05:38;;;;;;;2.67;2.22;;;21.20;98.30;;;;;;5062116;28;20403;-85
2022/07/03 06:08:04;;;;;;;2.03;1.92;;;21.60;97.50;;;;;;5037207;28;20033;-84
2022/07/03 06:10:31;;;;;;;3.10;2.00;;;21.80;96.00;;;;;;5035731;28;20028;-85
2022/07/03 06:12:57;;;;;;;2.20;2.00;;;22.20;96.10;;;;;;5037117;28;20067;-86
2022/07/03 06:15:23;;;;;;;1.98;1.80;;;22.30;94.10;;;;;;5054930;28;20953;-86
2022/07/03 06:17:49;;;;;;;3.45;2.10;;;22.50;93.50;;;;;;5022882;28;20040;-87
2022/07/03 06:20:15;;;;;;;2.10;2.00;;;22.60;92.90;;;;;;5019890;28;20033;-86
2022/07/03 06:22:41;;;;;;;3.00;1.90;;;22.90;92.70;;;;;;5038456;28;20067;-86
2022/07/03 06:25:07;;;;;;;5.13;1.75;;;22.90;91.40;;;;;;5055846;28;20502;-86
2022/07/03 06:27:34;;;;;;;2.20;2.03;;;23.10;90.40;;;;;;5038918;28;20040;-86
2022/07/03 06:30:00;;;;;;;2.08;1.98;;;23.30;90.60;;;;;;5054634;28;20028;-87
2022/07/03 06:32:26;;;;;;;2.42;2.13;;;23.30;89.40;;;;;;5038060;28;20674;-86
2022/07/03 06:34:52;;;;;;;2.08;1.98;;;23.40;88.90;;;;;;5035155;28;20033;-85
2022/07/03 06:37:19;;;;;;;2.58;2.08;;;23.70;86.90;;;;;;5036715;28;20040;-87
2022/07/03 06:39:45;;;;;;;2.92;2.08;;;23.80;86.30;;;;;;5054674;28;20036;-86
2022/07/03 06:42:10;;;;;;;2.30;2.08;;;24.00;85.80;;;;;;5021858;28;20085;-87
2022/07/03 06:44:36;;;;;;;1.88;1.77;;;24.20;86.00;;;;;;5038628;28;20033;-86
2022/07/03 06:47:03;;;;;;;2.00;1.75;;;24.40;82.40;;;;;;5038491;28;20040;-88
2022/07/03 06:49:31;;;;;;;2.55;1.73;;;24.30;82.50;;;;;;5071210;28;20395;-85
2022/07/03 06:51:57;;;;;;;1.65;1.55;;;24.70;82.50;;;;;;5054929;28;20037;-87
2022/07/03 06:54:23;;;;;;;3.80;1.80;;;24.80;82.10;;;;;;5022185;28;20039;-86
2022/07/03 06:56:48;;;;;;;2.63;1.60;;;24.70;80.00;;;;;;5037963;28;20028;-87
2022/07/03 06:59:14;;;;;;;1.70;1.60;;;24.90;79.40;;;;;;5037785;28;20123;-87
2022/07/03 07:01:40;;;;;;;1.80;1.70;;;25.00;77.90;;;;;;5038344;28;20039;-86
2022/07/03 07:04:06;;;;;;;2.78;2.03;;;25.30;77.90;;;;;;5040603;28;20041;-86
2022/07/03 07:06:31;;;;;;;1.70;1.60;;;25.80;76.70;;;;;;5042748;28;20032;-85
2022/07/03 07:08:57;;;;;;;2.08;1.70;;;26.00;73.10;;;;;;5055597;28;20028;-85
2022/07/03 07:11:23;;;;;;;2.00;1.90;;;26.40;73.90;;;;;;5023597;28;20038;-88
2022/07/03 07:13:49;;;;;;;1.83;1.50;;;26.30;69.80;;;;;;5071952;28;20106;-87
2022/07/03 07:16:15;;;;;;;3.78;1.95;;;26.30;70.70;;;;;;5041659;28;20038;-86
2022/07/03 07:18:42;;;;;;;1.60;1.50;;;26.60;70.00;;;;;;5033505;28;20119;-88
2022/07/03 07:21:09;;;;;;;4.40;1.35;;;27.10;71.50;;;;;;5042243;28;20036;-86
2022/07/03 07:23:34;;;;;;;3.83;1.52;;;27.30;67.90;;;;;;5021163;28;20041;-85
2022/07/03 07:26:00;;;;;;;1.50;1.40;;;27.50;65.00;;;;;;5031838;28;20036;-86
2022/07/03 07:28:26;;;;;;;1.42;1.33;;;27.50;62.40;;;;;;5037287;28;20668;-86
2022/07/03 07:30:55;;;;;;;2.03;1.50;;;27.40;65.70;;;;;;5046738;28;20082;-86
2022/07/03 07:33:21;;;;;;;1.40;1.30;;;27.60;66.70;;;;;;5021291;28;20037;-86
2022/07/03 07:35:47;;;;;;;1.30;1.20;;;28.30;65.50;;;;;;5036765;28;20025;-86
2022/07/03 07:38:13;;;;;;;1.08;1.08;;;29.00;61.40;;;;;;5020545;28;20522;-86
2022/07/03 07:40:39;;;;;;;2.15;1.92;;;29.50;60.70;;;;;;5038342;28;20049;-86
2022/07/03 07:43:04;;;;;;;1.20;1.10;;;29.70;59.00;;;;;;5017921;28;20056;-87
2022/07/03 07:45:30;;;;;;;1.77;1.25;;;30.20;59.30;;;;;;5057975;28;20708;-86
2022/07/03 07:47:56;;;;;;;1.13;1.05;;;30.40;58.60;;;;;;5042711;28;20545;-87
2022/07/03 07:50:22;;;;;;;1.35;0.80;;;30.80;56.30;;;;;;5061288;28;20032;-87
2022/07/03 07:52:48;;;;;;;1.30;1.20;;;31.00;56.30;;;;;;5053857;28;20032;-86
2022/07/03 07:55:14;;;;;;;1.95;1.13;;;30.80;52.40;;;;;;5053387;28;20032;-86
2022/07/03 07:57:41;;;;;;;1.45;1.35;;;30.60;54.40;;;;;;5036335;28;20040;-87
2022/07/03 08:00:12;;;;;;;1.85;1.17;;;30.60;53.60;;;;;;5053034;28;20036;-87
2022/07/03 08:05:37;;;;;;;4.50;3.13;;;30.80;54.40;;;;;;5050124;28;20029;-87
2022/07/03 08:08:07;;;;;;;1.25;1.17;;;30.10;53.60;;;;;;5044639;28;20037;-87
2022/07/03 08:10:35;;;;;;;1.40;1.30;;;30.00;55.30;;;;;;5039223;28;20394;-85
2022/07/03 08:13:01;;;;;;;1.10;1.00;;;29.50;55.20;;;;;;5042711;28;20036;-86
2022/07/03 08:15:27;;;;;;;1.17;1.17;;;29.50;56.80;;;;;;5027881;28;20024;-88
2022/07/03 08:17:52;;;;;;;1.20;1.10;;;29.00;56.00;;;;;;5048948;28;20024;-87
2022/07/03 08:20:18;;;;;;;1.20;1.10;;;28.50;58.60;;;;;;5022081;28;20033;-85
2022/07/03 08:22:44;;;;;;;1.50;1.40;;;28.40;58.00;;;;;;5015905;28;20567;-86
2022/07/03 08:25:10;;;;;;;1.50;1.40;;;27.50;57.70;;;;;;5046315;28;20128;-85
2022/07/03 08:27:35;;;;;;;1.20;1.20;;;27.30;59.50;;;;;;5016036;28;20033;-86
2022/07/03 08:30:02;;;;;;;1.50;1.40;;;27.10;61.40;;;;;;5013357;28;20060;-86
2022/07/03 08:32:28;;;;;;;1.40;1.30;;;27.20;64.20;;;;;;5032076;28;20119;-86
2022/07/03 08:34:53;;;;;;;1.33;1.23;;;27.10;60.90;;;;;;5016049;28;20773;-87
2022/07/03 08:37:19;;;;;;;2.17;1.30;;;27.20;62.30;;;;;;5031441;28;20029;-87
2022/07/03 08:39:45;;;;;;;2.00;1.80;;;26.70;61.50;;;;;;5032489;28;20119;-87
2022/07/03 08:42:12;;;;;;;1.33;1.23;;;26.70;63.50;;;;;;5022489;28;20478;-87
2022/07/03 08:44:39;;;;;;;1.52;1.42;;;26.80;67.20;;;;;;5068982;28;20037;-87
2022/07/03 08:47:10;;;;;;;1.60;1.50;;;26.80;65.70;;;;;;5019333;28;20036;-88
2022/07/03 08:49:37;;;;;;;2.15;1.30;;;26.90;63.70;;;;;;5040533;28;20048;-87
2022/07/03 08:52:07;;;;;;;2.10;1.33;;;26.60;62.80;;;;;;5016668;28;20025;-87
2022/07/03 08:54:33;;;;;;;1.80;1.35;;;26.70;66.40;;;;;;5030068;28;20029;-88
2022/07/03 08:57:01;;;;;;;2.45;1.40;;;26.90;66.60;;;;;;5045549;28;20103;-87
2022/07/03 08:59:36;;;;;;;1.25;1.10;;;27.00;68.40;;;;;;5044684;28;20031;-87
2022/07/03 09:02:04;;;;;;;;;;;27.30;64.90;;;;;;5037202;28;20083;-87
2022/07/03 09:04:31;;;;;;;1.20;1.20;;;27.60;67.20;;;;;;5032936;28;19909;-87
2022/07/03 09:06:58;;;;;;;1.50;1.40;;;27.90;63.30;;;;;;5044722;28;20033;-88
2022/07/03 09:09:24;;;;;;;1.52;1.42;;;28.10;61.30;;;;;;5033262;28;20522;-87
2022/07/03 09:11:51;;;;;;;3.30;1.20;;;27.80;62.50;;;;;;5032730;28;20032;-87
2022/07/03 09:14:17;;;;;;;1.25;1.23;;;28.10;61.20;;;;;;5025894;28;20055;-86
2022/07/03 09:16:43;;;;;;;1.75;1.50;;;28.10;65.20;;;;;;5062075;28;20036;-86
2022/07/03 09:19:09;;;;;;;1.02;0.90;;;28.20;65.60;;;;;;5041067;28;20029;-87
2022/07/03 09:21:39;;;;;;;1.40;1.30;;;28.10;59.10;;;;;;5020914;28;20067;-86
2022/07/03 09:24:07;;;;;;;3.58;1.73;;;28.00;59.30;;;;;;5053109;28;20498;-86
2022/07/03 09:26:34;;;;;;;0.98;0.98;;;28.00;65.60;;;;;;5031975;28;20091;-86
2022/07/03 09:29:00;;;;;;;0.88;0.77;;;27.90;63.50;;;;;;5048613;28;20057;-87
2022/07/03 09:31:29;;;;;;;0.68;0.68;;;27.80;61.10;;;;;;5046070;28;20029;-87
2022/07/03 09:34:01;;;;;;;1.05;0.90;;;27.70;63.80;;;;;;5032807;28;20040;-88
2022/07/03 09:36:47;;;;;;;0.90;0.90;;;27.60;62.60;;;;;;5049122;28;20181;-88
2022/07/03 09:39:25;;;;;;;1.13;1.02;;;27.60;63.10;;;;;;5029094;28;20033;-88
2022/07/03 09:42:11;;;;;;;0.80;0.75;;;27.50;62.30;;;;;;5046420;28;20706;-88
2022/07/03 09:44:40;;;;;;;0.60;0.60;;;27.50;61.60;;;;;;5047092;28;20032;-87
2022/07/03 09:47:16;;;;;;;0.70;0.70;;;27.40;61.80;;;;;;5018378;28;20028;-87
2022/07/03 09:49:54;;;;;;;0.55;0.55;;;27.40;56.80;;;;;;5053688;28;20123;-86
2022/07/03 09:52:38;;;;;;;0.73;0.60;;;27.30;58.10;;;;;;5033294;28;20036;-87
2022/07/03 09:55:10;;;;;;;0.60;0.60;;;27.30;62.00;;;;;;5050120;28;20028;-88
2022/07/03 09:58:01;;;;;;;2.97;0.85;;;27.30;58.70;;;;;;5016647;28;20037;-89
2022/07/03 10:00:29;;;;;;;0.50;0.50;;;27.30;60.60;;;;;;5043247;28;20052;-86
2022/07/03 10:03:05;;;;;;;0.60;0.60;;;27.40;63.20;;;;;;5052951;28;20517;-87
2022/07/03 10:05:36;;;;;;;1.05;0.70;;;27.40;58.90;;;;;;5036240;28;20032;-87
2022/07/03 10:08:07;;;;;;;0.60;0.60;;;27.50;56.00;;;;;;5055050;28;20039;-87
2022/07/03 10:10:35;;;;;;;0.60;0.60;;;27.50;57.80;;;;;;5063243;28;20032;-88
2022/07/03 10:13:03;;;;;;;0.55;0.55;;;27.60;57.90;;;;;;5070646;28;20035;-86
2022/07/03 10:15:31;;;;;;;0.70;0.70;;;27.50;57.10;;;;;;5023026;28;20707;-84
2022/07/03 10:17:59;;;;;;;1.55;1.40;;;27.50;60.90;;;;;;5057215;28;20024;-86
2022/07/03 10:20:29;;;;;;;0.85;0.60;;;27.40;59.20;;;;;;5035394;28;20317;-87
2022/07/03 10:22:55;;;;;;;0.68;0.68;;;27.50;60.40;;;;;;5058583;28;20043;-87
2022/07/03 10:25:22;;;;;;;0.73;0.73;;;27.40;55.60;;;;;;5054002;28;20060;-86
2022/07/03 10:27:48;;;;;;;0.80;0.60;;;27.30;54.10;;;;;;5042149;28;20037;-86
2022/07/03 10:30:16;;;;;;;0.70;0.70;;;27.10;54.60;;;;;;5052078;28;20404;-87
2022/07/03 10:32:45;;;;;;;0.95;0.70;;;27.10;57.30;;;;;;5038299;28;20029;-86
2022/07/03 10:35:13;;;;;;;0.77;0.77;;;27.20;56.10;;;;;;5035951;28;20123;-86
2022/07/03 10:37:52;;;;;;;0.75;0.75;;;27.30;58.70;;;;;;5028761;28;20036;-86
2022/07/03 10:46:25;;;;;;;0.70;0.70;;;27.80;56.80;;;;;;5066195;28;20112;-87
2022/07/03 10:49:00;;;;;;;0.80;0.80;;;27.80;60.40;;;;;;5056529;28;20117;-85
2022/07/03 10:51:48;;;;;;;0.60;0.60;;;27.90;59.60;;;;;;5017510;28;20040;-86
2022/07/03 10:54:30;;;;;;;0.95;0.88;;;27.80;55.00;;;;;;5010757;28;20472;-86
2022/07/03 10:57:02;;;;;;;0.77;0.77;;;27.80;56.80;;;;;;5042814;28;20036;-86
2022/07/03 11:02:41;;;;;;;0.90;0.90;;;27.50;55.60;;;;;;5068283;28;20043;-85
2022/07/03 11:05:09;;;;;;;4.65;2.67;;;27.40;55.90;;;;;;5061852;28;20385;-86
2022/07/03 11:08:03;;;;;;;0.80;0.80;;;27.30;56.10;;;;;;5020558;28;20036;-85
2022/07/03 11:10:30;;;;;;;0.70;0.70;;;27.40;59.60;;;;;;5048845;28;21429;-85
2022/07/03 11:12:56;;;;;;;0.82;0.60;;;27.50;58.10;;;;;;5061639;28;20048;-85
2022/07/03 11:15:33;;;;;;;0.90;0.60;;;27.40;55.70;;;;;;5056526;28;20021;-84
2022/07/03 11:18:14;;;;;;;0.93;0.85;;;27.50;57.10;;;;;;5058742;28;20765;-85
2022/07/03 11:20:43;;;;;;;0.70;0.70;;;27.60;54.60;;;;;;5067094;28;20082;-85
2022/07/03 11:23:27;;;;;;;0.50;0.50;;;27.70;58.10;;;;;;5038834;28;20039;-85
2022/07/03 11:25:58;;;;;;;1.85;0.68;;;27.60;53.90;;;;;;5058238;28;20070;-85
2022/07/03 11:28:33;;;;;;;8.05;0.80;;;27.60;54.00;;;;;;5020818;28;20041;-85
2022/07/03 11:33:56;;;;;;;0.82;0.70;;;27.50;52.50;;;;;;5068982;28;20044;-85
2022/07/03 11:36:21;;;;;;;1.17;0.60;;;27.50;54.00;;;;;;5037854;28;20488;-85
2022/07/03 11:38:59;;;;;;;0.57;0.55;;;27.60;56.70;;;;;;5035545;28;20028;-85
2022/07/03 11:41:35;;;;;;;0.85;0.60;;;27.70;55.60;;;;;;5060787;28;20540;-85
2022/07/03 11:44:03;;;;;;;1.05;0.50;;;27.90;52.90;;;;;;5039558;28;20399;-85
2022/07/03 11:46:31;;;;;;;2.38;0.82;;;28.00;54.10;;;;;;5059873;28;20451;-86
2022/07/03 11:49:27;;;;;;;0.63;0.60;;;28.10;51.60;;;;;;5052405;28;20032;-85
2022/07/03 11:52:04;;;;;;;2.30;0.60;;;28.10;51.80;;;;;;5030374;28;20056;-84
2022/07/03 11:54:32;;;;;;;0.65;0.50;;;28.30;53.80;;;;;;5030878;28;20147;-84
2022/07/03 11:57:00;;;;;;;1.30;0.55;;;28.40;52.50;;;;;;5015394;28;20060;-85
2022/07/03 11:59:27;;;;;;;0.65;0.50;;;28.50;54.00;;;;;;5029997;28;20033;-86
2022/07/03 12:02:01;;;;;;;0.50;0.50;;;28.70;54.00;;;;;;5015084;28;20064;-86
2022/07/03 12:04:29;;;;;;;0.55;0.55;;;28.90;52.00;;;;;;5046530;28;20048;-84
2022/07/03 12:06:58;;;;;;;0.70;0.70;;;29.00;51.70;;;;;;5047487;28;20051;-84
2022/07/03 12:09:35;;;;;;;0.90;0.57;;;29.00;49.70;;;;;;5050752;28;20062;-84
2022/07/03 12:12:01;;;;;;;0.60;0.60;;;29.20;51.50;;;;;;5038513;28;20036;-84
2022/07/03 12:14:36;;;;;;;0.90;0.80;;;29.10;49.30;;;;;;5042200;28;20029;-84
2022/07/03 12:17:03;;;;;;;0.70;0.70;;;29.20;47.20;;;;;;5049877;28;20025;-84
2022/07/03 12:19:29;;;;;;;0.63;0.63;;;29.40;48.30;;;;;;5072561;28;20025;-84
2022/07/03 12:21:54;;;;;;;0.60;0.60;;;29.40;51.70;;;;;;5048919;28;20094;-86
2022/07/03 12:24:20;;;;;;;1.00;0.60;;;29.50;47.60;;;;;;5042672;28;20039;-85
2022/07/03 12:26:48;;;;;;;0.60;0.60;;;29.70;50.90;;;;;;5033421;28;20044;-86
2022/07/03 12:29:14;;;;;;;1.40;0.50;;;30.00;50.20;;;;;;5032233;28;20033;-86
2022/07/03 12:31:45;;;;;;;0.60;0.60;;;30.20;51.20;;;;;;5036064;28;20059;-86
2022/07/03 12:34:12;;;;;;;0.73;0.45;;;30.40;50.40;;;;;;5031760;28;20783;-84
2022/07/03 12:36:39;;;;;;;0.60;0.60;;;30.50;48.10;;;;;;5024394;28;20369;-85
2022/07/03 12:39:05;;;;;;;0.73;0.60;;;30.70;49.10;;;;;;5024510;28;20450;-85
2022/07/03 12:41:31;;;;;;;0.50;0.50;;;30.90;47.00;;;;;;5070240;28;20020;-87
2022/07/03 12:44:00;;;;;;;0.52;0.40;;;31.20;48.00;;;;;;5068664;28;20028;-86
2022/07/03 12:46:32;;;;;;;1.38;0.60;;;31.40;46.70;;;;;;5054340;28;20033;-87
2022/07/03 12:48:59;;;;;;;0.63;0.60;;;31.70;43.50;;;;;;5051337;28;20066;-85
2022/07/03 12:51:45;;;;;;;0.60;0.60;;;31.80;42.00;;;;;;5017086;28;20123;-85
2022/07/03 12:54:21;;;;;;;0.50;0.50;;;31.60;42.80;;;;;;5049242;28;20037;-85
2022/07/03 13:00:17;;;;;;;1.08;1.00;;;31.40;41.60;;;;;;5041914;28;20024;-86
2022/07/03 13:02:47;;;;;;;1.60;0.80;;;31.50;42.00;;;;;;5065338;28;20036;-86
2022/07/03 13:05:41;;;;;;;0.47;0.43;;;31.50;44.00;;;;;;5017095;28;20048;-86
2022/07/03 13:08:07;;;;;;;0.55;0.55;;;31.40;39.90;;;;;;5042137;28;20032;-86
2022/07/03 13:10:35;;;;;;;1.73;0.50;;;31.20;41.70;;;;;;5017266;28;20025;-86
2022/07/03 13:13:01;;;;;;;0.60;0.60;;;31.50;44.20;;;;;;5013367;28;20649;-86
2022/07/03 13:15:29;;;;;;;0.43;0.43;;;31.70;43.00;;;;;;5013779;28;20031;-86
2022/07/03 13:17:54;;;;;;;0.40;0.40;;;31.90;42.40;;;;;;5016598;28;20025;-87
2022/07/03 13:20:23;;;;;;;0.70;0.40;;;32.00;42.00;;;;;;5048573;28;20467;-86